FLIGHT INFORMATION
KLM Royal Dutch Airlines

KLM755

At Arrival Gate

SEQM
 EHAM
DATE: 2020-01-23
GATE:  -
GATE DEPARTURE: 18:31
TAKEOFF: 18:46
DATE: 2020-01-24
GATE: F7
LANDING: 05:21
GATE ARRIVAL: 05:30
FLIGHT DATA
Crew: CHRIS MAKRIS
Speed: 515 kts Altitude: 39000 ft
Stage Length: 5157 nm
Route: SEQM ARNOK BOKAN MER ISKED ESARO MUGBU GIR BOG BUV KOMBO PIE CUC ENPUT STB IROSA BURGA MADNO DOLPO CRO ALCOT PJG SINDA REVOK LUCAS ACORA SILVA ILMET MILOK RAYAS RAFEE ANNER PORQE DANDE PJM MNOLO NEYDU OBIKE RKDIA 3150N 3940N 4530N 5020N ADARA LEKVA SHA LIFFY IDEXA GINIS NATKO LYNAS ROLEX MALUD WAL ASMIM BARTN SONEX DENBY DESIG ELNOD MAMUL EDUXO LAMIX ROGAG AMVEL DOLAS ENITO DIBAL BUKUT LAMSO EHAM
Block Time: 11 Flight Time: 10.6
Fuel Used: 226170 LB
TRACK DATA
50000 FT1000 KTAltitudeSpeed
AIRCRAFT INFORMATION
Aircraft Type: B744
Registration: PH-BFN
SELCAL: KLJP MSN/LN: 26372 / 969
Operator: KLM ROYAL DUTCH AIRLINES
Flights: 3 Block Time: 33.6 Flight Time: 32.8
Fuel Used: 599807 LB
  • DEPARTURE INFORMATION
    Date: 2020-01-23
    Airport: SEQM
    Gate:  -
    Gate Departure: 18:31
    Takeoff: 18:46
    ARRIVAL INFORMATION
    Date: 2020-01-24
    Airport: EHAM
    Gate: F7
    Landing: 05:21
    Gate Arrival: 05:30
  • FLIGHT DATA
    Crew: CHRIS MAKRIS
    Speed: 515 kts Altitude: 39000 ft
    Stage Length: 2785 nm
    Route: SEQM ARNOK BOKAN MER ISKED ESARO MUGBU GIR BOG BUV KOMBO PIE CUC ENPUT STB IROSA BURGA MADNO DOLPO CRO ALCOT PJG SINDA REVOK LUCAS ACORA SILVA ILMET MILOK RAYAS RAFEE ANNER PORQE DANDE PJM MNOLO NEYDU OBIKE RKDIA 3150N 3940N 4530N 5020N ADARA LEKVA SHA LIFFY IDEXA GINIS NATKO LYNAS ROLEX MALUD WAL ASMIM BARTN SONEX DENBY DESIG ELNOD MAMUL EDUXO LAMIX ROGAG AMVEL DOLAS ENITO DIBAL BUKUT LAMSO EHAM
    Block Time: 11 Flight Time: 10.6
    Fuel Used: 226170 LB
  • AIRCRAFT INFORMATION
    Aircraft Type: B744
    Registration: PH-BFN
    SELCAL: KLJP MSN/LN: 26372 / 969
    Operator: KLM Royal Dutch Airlines
    Flights: 3 Block Time: 33.6 Flight Time: 32.8
    Fuel Used: 599807 LB

DATALINK LOG | Newest first | Current as of: 2020-07-13 23:15:40
LABEL ID SEQUENCE CONTENT Dn/Up
QD300905:30 44.9▼ Dn
QC210305:21▼ Dn
2U1310EHAM 240625Z 16005KT 140V200 5000 BR SCT008 BKN014 OVC016 02/01 Q1023 TEMPO 4500 BKN008 RMK VATSIM INJECTION▲ Up
2U1310EBBR 240620Z 18004KT 5000 BR BKN005 02/01 Q1023 NOSIG▲ Up
2S1310EHAM EBBR▼ Dn
GA5618YOUR ASSIGNMENT IS STILL GATE F7▲ Up
GR0703EHAM 05:20 MAAS 00 YP/UM 00/00 WCHR/S/C 00/00/00 HI-VAL NO DIPL/VIP NO▼ Dn
GA3107GATE F7▲ Up
GR5156EHAM 05:24 YP/UM 00/00 WCHR/S/C 00/00/00 HI-VAL NO DIPL/VIP NO▼ Dn
2U4834EHAM 240555Z 15006KT 5000 BR SCT008 BKN013 OVC016 02/00 Q1023 TEMPO 4500 BKN008 RMK VATSIM INJECTION▲ Up
2S4834EHAM▼ Dn
2U4834EHAM 240555Z 15006KT 5000 BR SCT008 BKN013 OVC016 02/00 Q1023 TEMPO 4500 BKN008 RMK VATSIM INJECTION▲ Up
2S4834EHAM▼ Dn
QB475618:46▼ Dn
QA311618:31 271.4▼ Dn
5Z055723 JAN 20 18:04:57z / FLT DECK GOOD / ACF POS GOOD / GRND SERVICES GOOD / MAINT GOOD▼ Dn
A33532CLEARED TO EHAM VIA ARNO1A ARNOK UA550 BOG UW1 PIE UW34 CUC UW1 ENPUT UG431 PJG UA516 MILOK M576 RKDIA DCT 31N050W 39N040W 45N030W 50N020W DCT ADARA DCT LEKVA DCT SHA DCT LIFFY UL975 DESIG L603 LAMSO LAMS2A. SQUAWK 6052.▲ Up
A33440CLEARED TO EHAM VIA ARNO1A ARNOK UA550 BOG UW1 PIE UW34 CUC UW1 ENPUT UG431 PJG UA516 MILOK M576 RKDIA DCT 31N050W 39N040W 45N030W 50N020W DCT ADARA DCT LEKVA DCT SHA DCT LIFFY UL975 DESIG L603 LAMSO LAMS2A. SQUAWK 4257.▲ Up
2U1936SEQM 231700Z 34007KT 9999 FEW026 22/09 Q1026 NOSIG RMK A3030, VATSIM INJECTION▲ Up
2S1936SEQM▼ Dn
Q01613[LINK ACK]▲ Up
Q01625[LINK TEST]▼ Dn


AIRCRAFT HISTORY
FLIGHT DATE FLIGHT NUMBER ORIGIN DESTINATION ROUTE BLOCK TIME FLIGHT TIME FUEL USED (LB) PILOT
2020-05-22KLM691EHAM CYYZ EHAM EH001 EH051 EH009 EH028 BERGI AMGOD SUPUR MIMVA EMLON LEGRO NALAX LIBSO ODNEK USEKA ERKIT TLA AMLAD SUNOT 5820N 5830N 5840N 5750N HOIST YBC ML DICEN LIVBA VIDGO KISUK LETAK TADMO VIBLI IMEBA LEPUX DUGDA CALVY CYYZ7.67.2145601Tom Landry
2020-01-23KLM755SEQM EHAM SEQM ARNOK BOKAN MER ISKED ESARO MUGBU GIR BOG BUV KOMBO PIE CUC ENPUT STB IROSA BURGA MADNO DOLPO CRO ALCOT PJG SINDA REVOK LUCAS ACORA SILVA ILMET MILOK RAYAS RAFEE ANNER PORQE DANDE PJM MNOLO NEYDU OBIKE RKDIA 3150N 3940N 4530N 5020N ADARA LEKVA SHA LIFFY IDEXA GINIS NATKO LYNAS ROLEX MALUD WAL ASMIM BARTN SONEX DENBY DESIG ELNOD MAMUL EDUXO LAMIX ROGAG AMVEL DOLAS ENITO DIBAL BUKUT LAMSO EHAM1110.6226170Chris Makris
2020-01-22KLM755EHAM SEQM EHAM IDRID NOGRO LUSOR RINIS IDESI SABER LIVSU MANGO BRASO WESUL EVNAS LAM UGBET CPT GAJIT TOFED SUNFI GAPLI NERTU BEDRA 4820N 4430N 3940N 3250N KAVAX ZABOR SOCCO YIYYO SCAPA BOSCO BEXER PITOS GUDEL KERLI ONDAS ABA NOREX EJA MQU ARNOK SEQM12.111.9228036Chris Makris